Airfield :
LOGIN :

Register | Disclaimer

   EN    FR    IT 

 










Legend :    VFR   Marginal VFR   IFR   Intensive IFR   Very Intensive IFR
Visi :
Ceiling :
>= 8 km
>= 3000ft
5 to 8 km
1000 to 3000 ft
1500m to 5 km
500 to 1000 ft
800 to 1500m
200 to 500 ft
< 800m
< 200 ft
Symbols :   Thunderstorms  Fog  Heavy snow  Heavy precipitations  Wind > 20 kt
SIGMETs :     Misc.  Thunderstorms  Icing  Turbulence  Mountain Waves  Volcanic Ashes






- Airport Elevation : 479 ft
- IATA code : DOL


LFRG - Deauville

CURRENT METAR :
  • 291000Z AUTO VRB02KT 9999 ///TCU 13/10 Q1002 TEMPO 2000 TSRA BKN007 BKN020CB

EXPIRED METARs :
  • 290930Z AUTO VRB02KT 9999 FEW009/// BKN060/// BKN072/// ///TCU 12/10 Q1002 TEMPO 2000 TSRA SCT012 BKN025CB
  • 290900Z AUTO 01005KT 340V050 9999 BKN007/// BKN014/// OVC100/// ///TCU 12/10 Q1002 TEMPO 2000 TSRA SCT012 BKN025CB
  • 290830Z AUTO 00000KT 9999 ///TCU 13/10 Q1002 TEMPO 2000 TSRA SCT012 BKN025CB
  • 290800Z AUTO 20002KT 9999 ///CB 11/09 Q1001 TEMPO 2000 TSRA
  • 290730Z AUTO 17003KT 9999 ///TCU 10/09 Q1001 TEMPO 2000 TSRA BKN020CB

TAF AMD TAF LFRG
Valid from the 29 at 09:00 until the 29 at 18:00 UTC


290923Z 2909/2918 VRB05KT 9999 SCT025
TEMPO 2909/2916 4000 SHRA BKN025CB
PROB40
TEMPO 2909/2914 2000 TSRA BKN007 BKN020CB
ATIS : +33 2 31 65 65 36



MET'MAP, your aeronautical weather chart ! - Copyright ORBIFLY December 2007 - Disclaimer

ORBIFLY MET'MAP TEAM :

Programming & Development : Alexandra Zaïnal
Original concept : Baudouin d'Aumeries
Technical & hardware support : Manuel Goepfert
Assistance : Marc-Olivier Méhu




SOURCES & CREDITS :

   NOAA